Aérodrome :
LOGIN :

S'inscrire | Disclaimer

   EN    FR    IT 

 










Légende :    VFR   VFR Marginal   IFR   IFR Intensif   IFR Très Intensif
Visi : 
Plafond : 
>= 8 km
>= 3000ft
5 à 8 km
1000 à 3000 ft
1500m à 5 km
500 à 1000 ft
800 à 1500m
200 à 500 ft
< 800m
< 200 ft
Symboles :   Orages  Brouillard  Fortes neiges  Fortes précipitations  Vent > 20 kt
SIGMETs :   Divers  Orages  Givrage  Turbulence  Onde Orograph.  Cendres Volcan.







- Altitude de l'aérodrome : 1521 ft
- Code IATA : NCY
- Voir les cartes d'approche


LFLP - Annecy

DERNIER METAR :
  • 241530Z AUTO 01007KT CAVOK 13/07 Q1020 NOSIG

METARs EXPIRÉS :
  • 241500Z AUTO 03005KT 360V060 CAVOK 13/07 Q1020 NOSIG
  • 241430Z AUTO 04005KT 360V080 CAVOK 12/07 Q1019 NOSIG
  • 241400Z AUTO 03005KT CAVOK 12/07 Q1019 NOSIG
  • 241330Z AUTO VRB03KT CAVOK 13/07 Q1020 NOSIG
  • 241300Z AUTO 04003KT 330V080 CAVOK 13/07 Q1019 NOSIG

TAF TAF LFLP
Valide du 24 à 15h jusqu'au 25 à 15h UTC


241400Z 2415/2515 03007KT CAVOK
TEMPO 2421/2508 VRB02KT
PROB30
TEMPO 2502/2508 5000 BKN011
BECMG 2513/2515 22015KT OVC025
Pas de NOTAMs connus pour ce terrain.
2 SIGMETs publiés pour la FIR Marseille (LFMM) :
 
Turbulence forte
LFMM SIGMET 3 VALID 241500/241900 LFPW
LFMM MARSEILLE FIR/UIR SEV TURB FCST WI N4300 E00815 - N4215 E00400 - N4315 E00345 - N4400 E00545 SFC/FL060 MOV W 15KT NC=
Turbulence forte
LFMM SIGMET 2 VALID 241100/241500 LFPW
LFMM MARSEILLE FIR/UIR SEV TURB FCST WI N4315 E00745 - N4215 E00515 - N4300 E00445 - N4345 E00715 SFC/FL060 MOV W 15KT NC=



MET'MAP, la Météo Aéronautique d'un coup d'oeil ! - Copyright ORBIFLY Décembre 2007 - Disclaimer

ORBIFLY MET'MAP TEAM :

Programmation & Développement : Alexandra Zaïnal
Conception & Développement : Baudouin d'Aumeries
Co-Programmation & Développement : Marc-Olivier Méhu
Soutien technique & logistique : Manuel Goepfert

Contact : metmap@orbifly.com




SOURCES & CREDITS :

   NOAA